Time;durP1;ratioP1;P1;durP2;ratioP2;P2;SDS_P1;SDS_P2;PMS_P1;PMS_P2;Temp;Humidity;BMP_temperature;BMP_pressure;BME280_temperature;BME280_humidity;BME280_pressure;Samples;Min_cycle;Max_cycle;Signal;HPM_P1;HPM_P2
2024/02/24 00:00:25;;;;;;;7.22;2.60;;;6.30;99.90;;;;;;5034289;28;20091;-76
2024/02/24 00:02:50;;;;;;;4.78;3.03;;;6.30;99.90;;;;;;5034799;28;20041;-76
2024/02/24 00:05:16;;;;;;;4.10;2.08;;;6.30;99.90;;;;;;5034960;28;20040;-77
2024/02/24 00:07:42;;;;;;;3.10;2.55;;;6.30;99.90;;;;;;5034465;28;20044;-76
2024/02/24 00:10:07;;;;;;;9.05;3.00;;;6.20;99.90;;;;;;5034385;28;20405;-77
2024/02/24 00:12:33;;;;;;;6.10;2.55;;;6.30;99.90;;;;;;5034114;28;20049;-77
2024/02/24 00:14:59;;;;;;;3.60;2.20;;;6.30;99.90;;;;;;5034724;28;20083;-76
2024/02/24 00:17:25;;;;;;;9.38;3.38;;;6.30;99.90;;;;;;5034440;28;20511;-75
2024/02/24 00:19:50;;;;;;;4.70;2.38;;;6.40;99.90;;;;;;5034003;28;20122;-76
2024/02/24 00:22:16;;;;;;;5.53;2.83;;;6.40;99.90;;;;;;5034220;28;20037;-76
2024/02/24 00:24:42;;;;;;;7.30;2.90;;;6.40;99.90;;;;;;5034365;28;20041;-77
2024/02/24 00:27:07;;;;;;;8.23;2.65;;;6.40;99.90;;;;;;5034251;28;20037;-76
2024/02/24 00:29:33;;;;;;;5.00;2.42;;;6.30;99.90;;;;;;5034279;28;20041;-76
2024/02/24 00:31:59;;;;;;;3.60;2.30;;;6.40;99.90;;;;;;5033923;28;20519;-76
2024/02/24 00:34:24;;;;;;;4.00;2.70;;;6.50;99.90;;;;;;5034130;28;20037;-76
2024/02/24 00:36:50;;;;;;;6.70;2.28;;;6.30;99.90;;;;;;5034198;28;20037;-76
2024/02/24 00:39:15;;;;;;;4.82;2.13;;;6.30;99.90;;;;;;5051696;28;20037;-77
2024/02/24 00:41:42;;;;;;;4.32;2.50;;;6.40;99.90;;;;;;5032887;28;20037;-76
2024/02/24 00:44:09;;;;;;;3.92;2.10;;;6.40;99.90;;;;;;5033887;28;20090;-77
2024/02/24 00:46:35;;;;;;;4.28;2.55;;;6.40;99.90;;;;;;5033904;28;20047;-75
2024/02/24 00:49:01;;;;;;;4.45;2.13;;;6.40;99.90;;;;;;5033618;28;20041;-76
2024/02/24 00:51:26;;;;;;;6.15;2.72;;;6.30;99.90;;;;;;5033432;28;20436;-77
2024/02/24 00:53:52;;;;;;;7.30;2.78;;;6.40;99.90;;;;;;5033867;28;20075;-76
2024/02/24 00:56:19;;;;;;;2.88;1.85;;;6.40;99.90;;;;;;5033710;28;20029;-76
2024/02/24 00:58:44;;;;;;;5.57;2.13;;;6.30;99.90;;;;;;5033638;28;20040;-76
2024/02/24 01:01:10;;;;;;;3.88;1.80;;;6.40;99.90;;;;;;5016952;28;20408;-77
2024/02/24 01:03:36;;;;;;;5.65;2.10;;;6.40;99.90;;;;;;5033835;28;20083;-76
2024/02/24 01:06:01;;;;;;;4.07;2.10;;;6.40;99.90;;;;;;5033832;28;20400;-75
2024/02/24 01:08:27;;;;;;;6.25;3.28;;;6.40;99.90;;;;;;5033538;28;20037;-76
2024/02/24 01:10:52;;;;;;;3.63;1.92;;;6.30;99.90;;;;;;5033240;28;20037;-76
2024/02/24 01:13:18;;;;;;;4.38;2.03;;;6.30;99.90;;;;;;5033804;28;20033;-76
2024/02/24 01:15:44;;;;;;;4.75;2.90;;;6.30;99.90;;;;;;5033824;28;20462;-76
2024/02/24 01:18:09;;;;;;;4.95;2.00;;;6.30;99.90;;;;;;5033266;28;20488;-74
2024/02/24 01:20:35;;;;;;;5.82;2.67;;;6.30;99.90;;;;;;5033161;28;20041;-77
2024/02/24 01:23:01;;;;;;;4.38;2.15;;;6.20;99.90;;;;;;5033816;28;20193;-76
2024/02/24 01:25:26;;;;;;;6.65;2.50;;;6.30;99.90;;;;;;5033849;28;20033;-77
2024/02/24 01:27:53;;;;;;;3.00;2.00;;;6.20;99.90;;;;;;5033339;28;20480;-76
2024/02/24 01:30:19;;;;;;;4.93;2.05;;;6.20;99.90;;;;;;5033158;28;20044;-76
2024/02/24 01:32:44;;;;;;;3.80;2.13;;;6.20;99.90;;;;;;5033465;28;20037;-76
2024/02/24 01:35:10;;;;;;;7.47;2.70;;;6.20;99.90;;;;;;5033313;28;20048;-75
2024/02/24 01:37:36;;;;;;;5.32;3.80;;;6.10;99.90;;;;;;5033368;28;20052;-75
2024/02/24 01:40:05;;;;;;;3.53;1.60;;;6.00;99.90;;;;;;5033050;28;20045;-74
2024/02/24 01:42:31;;;;;;;5.00;2.08;;;6.10;99.90;;;;;;5033004;28;20041;-75
2024/02/24 01:44:56;;;;;;;4.90;2.20;;;6.10;99.90;;;;;;5033188;28;20040;-75
2024/02/24 01:47:23;;;;;;;5.88;2.22;;;6.00;99.90;;;;;;5017180;28;20040;-75
2024/02/24 01:49:51;;;;;;;3.47;2.03;;;6.00;99.90;;;;;;5033044;28;20079;-76
2024/02/24 01:52:16;;;;;;;5.07;2.70;;;5.90;99.90;;;;;;5032754;28;20120;-75
2024/02/24 01:54:42;;;;;;;3.97;2.13;;;5.80;99.90;;;;;;5036279;28;20134;-75
2024/02/24 01:57:11;;;;;;;7.20;2.33;;;5.80;99.90;;;;;;5037019;28;20095;-74
2024/02/24 01:59:36;;;;;;;3.72;2.13;;;5.80;99.90;;;;;;5036735;28;20044;-76
2024/02/24 02:02:02;;;;;;;3.80;2.08;;;5.70;99.90;;;;;;5036569;28;20033;-75
2024/02/24 02:04:28;;;;;;;3.97;2.03;;;5.70;99.90;;;;;;5054872;28;20037;-74
2024/02/24 02:06:54;;;;;;;4.20;2.33;;;5.70;99.90;;;;;;5036911;28;20124;-75
2024/02/24 02:09:19;;;;;;;3.45;2.60;;;5.70;99.90;;;;;;5036785;28;20079;-76
2024/02/24 02:11:45;;;;;;;6.45;2.45;;;5.60;99.90;;;;;;5036484;28;20056;-76
2024/02/24 02:14:11;;;;;;;3.47;2.38;;;5.50;99.90;;;;;;5037028;28;20538;-75
2024/02/24 02:16:40;;;;;;;4.78;2.60;;;5.50;99.90;;;;;;5036811;28;20523;-75
2024/02/24 02:19:06;;;;;;;3.90;2.40;;;5.60;99.90;;;;;;5036594;28;20044;-75
2024/02/24 02:21:34;;;;;;;6.50;2.65;;;5.60;99.90;;;;;;5019943;28;20041;-75
2024/02/24 02:23:59;;;;;;;3.97;2.78;;;5.50;99.90;;;;;;5036653;28;20508;-76
2024/02/24 02:26:25;;;;;;;4.10;2.20;;;5.50;99.90;;;;;;5036491;28;20079;-76
2024/02/24 02:28:50;;;;;;;2.70;1.90;;;5.50;99.90;;;;;;5019723;28;20037;-74
2024/02/24 02:31:16;;;;;;;5.40;2.30;;;5.50;99.90;;;;;;5035859;28;20048;-76
2024/02/24 02:33:42;;;;;;;4.60;2.97;;;5.60;99.90;;;;;;5036649;28;20037;-75
2024/02/24 02:36:08;;;;;;;6.80;2.38;;;5.50;99.90;;;;;;5036730;28;20562;-75
2024/02/24 02:38:33;;;;;;;4.10;2.47;;;5.50;99.90;;;;;;5036180;28;20120;-76
2024/02/24 02:41:01;;;;;;;4.57;2.20;;;5.50;99.90;;;;;;5035876;28;20037;-75
2024/02/24 02:43:27;;;;;;;3.00;2.30;;;5.60;99.90;;;;;;5019662;28;20128;-76
2024/02/24 02:45:52;;;;;;;3.35;2.30;;;5.50;99.90;;;;;;5019580;28;20123;-75
2024/02/24 02:48:18;;;;;;;3.55;2.03;;;5.50;99.90;;;;;;5053928;28;20033;-76
2024/02/24 02:50:44;;;;;;;4.70;2.33;;;5.40;99.90;;;;;;5035712;28;20059;-76
2024/02/24 02:53:09;;;;;;;5.53;2.50;;;5.40;99.90;;;;;;5019644;28;20075;-76
2024/02/24 02:55:35;;;;;;;3.78;1.95;;;5.40;99.90;;;;;;5035972;28;20040;-76
2024/02/24 02:58:01;;;;;;;4.15;2.20;;;5.50;99.90;;;;;;5053551;28;20470;-75
2024/02/24 03:00:26;;;;;;;4.80;2.10;;;5.30;99.90;;;;;;5035408;28;20041;-76
2024/02/24 03:02:52;;;;;;;3.40;1.92;;;5.30;99.90;;;;;;5035897;28;20043;-76
2024/02/24 03:05:18;;;;;;;5.32;2.25;;;5.30;99.90;;;;;;5018097;28;20037;-76
2024/02/24 03:07:43;;;;;;;2.75;1.70;;;5.40;99.90;;;;;;5035289;28;20086;-76
2024/02/24 03:10:09;;;;;;;4.00;2.17;;;5.20;99.90;;;;;;5035803;28;20098;-75
2024/02/24 03:12:35;;;;;;;4.13;2.55;;;5.30;99.90;;;;;;5035143;28;20045;-76
2024/02/24 03:15:00;;;;;;;2.65;1.67;;;5.20;99.90;;;;;;5034806;28;20689;-76
2024/02/24 03:17:26;;;;;;;3.20;2.15;;;5.20;99.90;;;;;;5034543;28;20050;-76
2024/02/24 03:19:51;;;;;;;3.03;2.08;;;5.30;99.90;;;;;;5035150;28;20440;-76
2024/02/24 03:22:17;;;;;;;3.33;2.25;;;5.20;99.90;;;;;;5053006;28;20045;-74
2024/02/24 03:24:43;;;;;;;3.30;2.22;;;5.20;99.90;;;;;;5035546;28;20040;-76
2024/02/24 03:27:10;;;;;;;4.28;2.72;;;5.20;99.90;;;;;;5035212;28;20095;-76
2024/02/24 03:29:36;;;;;;;3.95;2.40;;;5.20;99.90;;;;;;5035220;28;20051;-76
2024/02/24 03:32:03;;;;;;;4.90;2.17;;;5.20;99.90;;;;;;5035151;28;20423;-75
2024/02/24 03:34:28;;;;;;;4.63;2.55;;;5.20;99.90;;;;;;5035520;28;20520;-75
2024/02/24 03:36:54;;;;;;;2.80;2.17;;;5.00;99.90;;;;;;5035112;28;20037;-76
2024/02/24 03:39:21;;;;;;;4.80;1.90;;;5.10;99.90;;;;;;5017941;28;20443;-76
2024/02/24 03:41:47;;;;;;;3.70;2.50;;;5.00;99.90;;;;;;5034725;28;20043;-76
2024/02/24 03:44:13;;;;;;;3.53;2.00;;;5.00;99.90;;;;;;5035506;28;20037;-76
2024/02/24 03:46:39;;;;;;;4.47;2.30;;;5.00;99.90;;;;;;5035261;28;20029;-76
2024/02/24 03:49:05;;;;;;;2.70;1.67;;;5.00;99.90;;;;;;5034913;28;20120;-76
2024/02/24 03:51:30;;;;;;;3.67;2.10;;;4.90;99.90;;;;;;5034494;28;20116;-76
2024/02/24 03:53:56;;;;;;;4.55;2.30;;;4.90;99.90;;;;;;5018517;28;20090;-75
2024/02/24 03:56:22;;;;;;;2.88;2.00;;;5.00;99.90;;;;;;5034833;28;20102;-76
2024/02/24 03:58:47;;;;;;;3.80;2.00;;;4.90;99.90;;;;;;5034807;28;20036;-76
2024/02/24 04:01:13;;;;;;;2.83;2.20;;;4.80;99.90;;;;;;5034318;28;20602;-76
2024/02/24 04:03:39;;;;;;;3.17;1.92;;;4.80;99.90;;;;;;5035085;28;20032;-76
2024/02/24 04:06:05;;;;;;;3.00;1.85;;;4.70;99.90;;;;;;5034524;28;20068;-76
2024/02/24 04:08:31;;;;;;;2.85;2.00;;;4.70;99.90;;;;;;5052334;28;20048;-76
2024/02/24 04:10:58;;;;;;;5.07;2.20;;;4.80;99.90;;;;;;5034315;28;20037;-76
2024/02/24 04:13:23;;;;;;;6.93;3.65;;;4.80;99.90;;;;;;5034614;28;20049;-76
2024/02/24 04:15:50;;;;;;;4.18;2.30;;;4.80;99.90;;;;;;5052070;28;20186;-76
2024/02/24 04:18:16;;;;;;;3.17;1.92;;;4.80;99.90;;;;;;5034502;28;20401;-76
2024/02/24 04:20:44;;;;;;;3.25;1.65;;;4.70;99.90;;;;;;5034118;28;20504;-76
2024/02/24 04:23:09;;;;;;;3.25;1.80;;;4.60;99.90;;;;;;5034690;28;20033;-76
2024/02/24 04:25:35;;;;;;;5.63;2.15;;;4.80;99.90;;;;;;5034268;28;20558;-76
2024/02/24 04:28:01;;;;;;;3.63;2.20;;;4.80;99.90;;;;;;5034044;28;20048;-76
2024/02/24 04:30:26;;;;;;;3.00;2.05;;;4.70;99.90;;;;;;5034034;28;20066;-76
2024/02/24 04:32:52;;;;;;;5.53;2.72;;;4.80;99.90;;;;;;5034314;28;20049;-76
2024/02/24 04:35:18;;;;;;;4.93;2.53;;;4.70;99.90;;;;;;5034503;28;20052;-76
2024/02/24 04:37:43;;;;;;;5.32;2.25;;;4.80;99.90;;;;;;5051619;28;20037;-76
2024/02/24 04:40:09;;;;;;;3.10;2.08;;;4.90;99.90;;;;;;5033834;28;20083;-76
2024/02/24 04:42:35;;;;;;;4.25;2.63;;;4.80;99.90;;;;;;5017085;28;20036;-76
2024/02/24 04:45:00;;;;;;;4.35;2.20;;;4.90;99.90;;;;;;5017550;28;20040;-76
2024/02/24 04:47:28;;;;;;;3.58;2.00;;;4.80;99.90;;;;;;5017802;28;20036;-76
2024/02/24 04:49:54;;;;;;;3.47;2.40;;;4.80;99.90;;;;;;5033951;28;20052;-76
2024/02/24 04:52:20;;;;;;;2.83;2.22;;;4.90;99.90;;;;;;5033778;28;20048;-76
2024/02/24 04:54:47;;;;;;;3.88;2.33;;;4.80;99.90;;;;;;5033894;28;20408;-77
2024/02/24 04:57:13;;;;;;;4.00;2.33;;;4.80;99.90;;;;;;5033628;28;20049;-76
2024/02/24 04:59:38;;;;;;;4.78;2.40;;;4.80;99.90;;;;;;5033498;28;20041;-76
2024/02/24 05:02:04;;;;;;;5.60;2.67;;;4.80;99.90;;;;;;5033705;28;20484;-76
2024/02/24 05:04:30;;;;;;;3.15;2.00;;;4.70;99.90;;;;;;5033875;28;20088;-76
2024/02/24 05:06:55;;;;;;;4.45;2.13;;;4.70;99.90;;;;;;5017189;28;20040;-76
2024/02/24 05:09:21;;;;;;;3.13;2.10;;;4.60;99.90;;;;;;5033483;28;20087;-75
2024/02/24 05:11:46;;;;;;;3.17;2.13;;;4.60;99.90;;;;;;5033555;28;20069;-75
2024/02/24 05:14:12;;;;;;;4.20;2.22;;;4.70;99.90;;;;;;5033852;28;20049;-76
2024/02/24 05:16:41;;;;;;;3.30;2.38;;;4.60;99.90;;;;;;5033778;28;20048;-75
2024/02/24 05:19:06;;;;;;;3.50;2.17;;;4.50;99.90;;;;;;5033724;28;20045;-75
2024/02/24 05:21:32;;;;;;;3.95;2.28;;;4.60;99.90;;;;;;5050950;28;20561;-76
2024/02/24 05:23:58;;;;;;;4.97;3.05;;;4.60;99.90;;;;;;5033337;28;20106;-75
2024/02/24 05:26:28;;;;;;;4.32;2.50;;;4.50;99.90;;;;;;5017127;28;20079;-75
2024/02/24 05:28:57;;;;;;;3.30;2.45;;;4.60;99.90;;;;;;5036962;28;20041;-75
2024/02/24 05:31:23;;;;;;;4.25;2.38;;;4.50;99.90;;;;;;5039632;28;20041;-74
2024/02/24 05:33:51;;;;;;;4.40;2.60;;;4.50;99.90;;;;;;5040244;28;20067;-76
2024/02/24 05:36:18;;;;;;;4.72;2.22;;;4.30;99.90;;;;;;5039677;28;20040;-76
2024/02/24 05:38:44;;;;;;;5.05;2.58;;;4.30;99.90;;;;;;5039842;28;20049;-75
2024/02/24 05:41:09;;;;;;;5.20;2.38;;;4.30;99.90;;;;;;5039427;28;20045;-74
2024/02/24 05:43:35;;;;;;;4.22;2.05;;;4.30;99.90;;;;;;5040135;28;20037;-75
2024/02/24 05:46:06;;;;;;;2.75;2.30;;;4.30;99.90;;;;;;5039669;28;20036;-76
2024/02/24 05:48:36;;;;;;;2.45;2.15;;;4.40;99.90;;;;;;5039706;28;20090;-75
2024/02/24 05:51:04;;;;;;;4.22;2.28;;;4.20;99.90;;;;;;5039557;28;20072;-74
2024/02/24 05:53:30;;;;;;;3.63;2.22;;;4.30;99.90;;;;;;5039884;28;20410;-74
2024/02/24 05:55:56;;;;;;;3.83;2.20;;;4.30;99.90;;;;;;5039621;28;20527;-75
2024/02/24 05:58:21;;;;;;;3.83;2.40;;;4.20;99.90;;;;;;5023018;28;20049;-75
2024/02/24 06:00:47;;;;;;;4.88;2.50;;;4.30;99.90;;;;;;5039205;28;20079;-76
2024/02/24 06:03:13;;;;;;;3.45;2.47;;;4.30;99.90;;;;;;5039865;28;20048;-76
2024/02/24 06:05:39;;;;;;;4.13;2.67;;;4.30;99.90;;;;;;5023534;28;20033;-76
2024/02/24 06:08:05;;;;;;;6.18;2.50;;;4.30;99.90;;;;;;5022760;28;20488;-76
2024/02/24 06:10:31;;;;;;;3.35;2.45;;;4.30;99.90;;;;;;5039168;28;20400;-75
2024/02/24 06:12:59;;;;;;;3.72;2.20;;;4.20;99.90;;;;;;5039698;28;20180;-76
2024/02/24 06:15:24;;;;;;;4.20;2.65;;;4.20;99.90;;;;;;5039585;28;20076;-75
2024/02/24 06:17:50;;;;;;;3.35;2.30;;;4.30;99.90;;;;;;5039631;28;20530;-75
2024/02/24 06:20:16;;;;;;;3.75;2.72;;;4.30;99.90;;;;;;5057161;28;20048;-75
2024/02/24 06:22:41;;;;;;;4.30;2.08;;;4.30;99.90;;;;;;5039899;28;20033;-76
2024/02/24 06:25:07;;;;;;;4.63;2.20;;;4.40;99.90;;;;;;5023389;28;20044;-76
2024/02/24 06:27:33;;;;;;;4.32;2.60;;;4.30;99.90;;;;;;5039501;28;20033;-75
2024/02/24 06:29:58;;;;;;;3.63;2.30;;;4.20;99.90;;;;;;5022833;28;20033;-75
2024/02/24 06:32:24;;;;;;;3.35;2.83;;;4.20;99.90;;;;;;5039110;28;20037;-74
2024/02/24 06:34:50;;;;;;;3.40;2.20;;;4.20;99.90;;;;;;5039252;28;20186;-76
2024/02/24 06:37:15;;;;;;;4.13;2.30;;;4.30;99.90;;;;;;5039337;28;20120;-76
2024/02/24 06:39:41;;;;;;;4.47;2.28;;;4.30;99.90;;;;;;5021051;28;20241;-75
2024/02/24 06:42:07;;;;;;;3.40;2.35;;;4.20;99.90;;;;;;5035597;28;20037;-75
2024/02/24 06:44:32;;;;;;;3.92;2.42;;;4.40;99.90;;;;;;5020103;28;20067;-75
2024/02/24 06:46:58;;;;;;;4.47;2.10;;;4.30;99.90;;;;;;5036175;28;20511;-75
2024/02/24 06:49:23;;;;;;;3.58;2.47;;;4.30;99.90;;;;;;5036017;28;20110;-76
2024/02/24 06:51:50;;;;;;;3.72;2.38;;;4.40;99.90;;;;;;5053810;28;20527;-75
2024/02/24 06:54:16;;;;;;;4.15;2.78;;;4.20;99.90;;;;;;5036187;28;20420;-75
2024/02/24 06:56:42;;;;;;;3.88;2.95;;;4.30;99.90;;;;;;5053774;28;20044;-75
2024/02/24 06:59:07;;;;;;;4.28;2.40;;;4.40;99.90;;;;;;5035603;28;20052;-75
2024/02/24 07:01:33;;;;;;;4.22;2.88;;;4.30;99.90;;;;;;5053284;28;20128;-75
2024/02/24 07:03:59;;;;;;;4.55;2.60;;;4.30;99.90;;;;;;5053573;28;20033;-75
2024/02/24 07:06:24;;;;;;;4.80;2.88;;;4.40;99.90;;;;;;5019375;28;20064;-75
2024/02/24 07:08:51;;;;;;;4.75;2.92;;;4.40;99.90;;;;;;5035601;28;20080;-75
2024/02/24 07:11:16;;;;;;;6.40;3.15;;;4.40;99.90;;;;;;5035313;28;20045;-75
2024/02/24 07:13:42;;;;;;;4.75;3.20;;;4.50;99.90;;;;;;5035822;28;20106;-75
2024/02/24 07:16:08;;;;;;;5.57;3.70;;;4.50;99.90;;;;;;5053476;28;20047;-75
2024/02/24 07:18:35;;;;;;;4.70;2.65;;;4.50;99.90;;;;;;5035367;28;20042;-75
2024/02/24 07:21:02;;;;;;;5.43;3.50;;;4.60;99.90;;;;;;5035285;28;20051;-77
2024/02/24 07:23:27;;;;;;;6.50;2.83;;;4.50;99.90;;;;;;5035945;28;20052;-77
2024/02/24 07:25:53;;;;;;;5.70;3.05;;;4.60;99.90;;;;;;5053633;28;20033;-77
2024/02/24 07:28:19;;;;;;;3.72;2.47;;;4.70;99.90;;;;;;5036443;28;20037;-77
2024/02/24 07:30:45;;;;;;;5.15;3.20;;;4.70;99.90;;;;;;5036018;28;20045;-77
2024/02/24 07:33:11;;;;;;;3.95;3.25;;;5.00;99.90;;;;;;5057912;28;20246;-76
2024/02/24 07:35:37;;;;;;;6.15;3.33;;;4.90;99.90;;;;;;5039020;28;20600;-76
2024/02/24 07:38:03;;;;;;;6.07;3.42;;;5.10;99.90;;;;;;5020435;28;20044;-77
2024/02/24 07:40:28;;;;;;;5.53;3.08;;;5.00;99.90;;;;;;5054159;28;20719;-77
2024/02/24 07:42:54;;;;;;;8.52;3.42;;;5.10;99.90;;;;;;5020125;28;20052;-77
2024/02/24 07:45:25;;;;;;;5.50;2.85;;;5.20;99.90;;;;;;5020465;28;20033;-77
2024/02/24 07:47:51;;;;;;;7.60;3.33;;;5.00;99.90;;;;;;5021984;28;20041;-78
2024/02/24 07:50:17;;;;;;;6.75;3.38;;;5.10;99.90;;;;;;5037247;28;20489;-79
2024/02/24 07:52:43;;;;;;;6.90;3.33;;;5.20;99.90;;;;;;5036746;28;20045;-77
2024/02/24 07:55:09;;;;;;;6.07;3.75;;;5.10;99.90;;;;;;5038770;28;20098;-77
2024/02/24 07:57:34;;;;;;;5.10;3.30;;;5.30;99.90;;;;;;5038908;28;20037;-78
2024/02/24 08:00:00;;;;;;;5.80;3.25;;;5.20;99.90;;;;;;5021267;28;20449;-78
2024/02/24 08:02:26;;;;;;;7.85;3.90;;;5.20;99.90;;;;;;5038413;28;20048;-78
2024/02/24 08:04:52;;;;;;;5.60;3.50;;;5.20;99.90;;;;;;5038879;28;20428;-78
2024/02/24 08:07:17;;;;;;;5.82;3.50;;;5.30;99.90;;;;;;5038820;28;20037;-78
2024/02/24 08:09:43;;;;;;;5.68;3.78;;;5.30;99.90;;;;;;5035254;28;20461;-76
2024/02/24 08:12:08;;;;;;;7.00;3.80;;;5.30;99.90;;;;;;5035560;28;20048;-78
2024/02/24 08:14:34;;;;;;;5.22;4.00;;;5.40;99.90;;;;;;5039039;28;20037;-78
2024/02/24 08:17:00;;;;;;;6.43;3.55;;;5.50;99.90;;;;;;5020820;28;20048;-78
2024/02/24 08:19:25;;;;;;;8.63;3.75;;;5.50;99.90;;;;;;5018834;28;20107;-79
2024/02/24 08:21:51;;;;;;;6.50;4.07;;;5.60;99.90;;;;;;5036982;28;20032;-78
2024/02/24 08:24:17;;;;;;;7.85;3.92;;;5.60;99.90;;;;;;5038020;28;20124;-78
2024/02/24 08:26:43;;;;;;;7.78;4.00;;;5.70;99.90;;;;;;5052776;28;20052;-78
2024/02/24 08:29:09;;;;;;;6.07;4.60;;;5.70;99.90;;;;;;5042176;28;20546;-79
2024/02/24 08:31:38;;;;;;;8.73;4.72;;;5.70;99.90;;;;;;5040378;28;20067;-78
2024/02/24 08:34:04;;;;;;;8.40;4.32;;;5.70;99.90;;;;;;5040382;28;20116;-78
2024/02/24 08:36:30;;;;;;;6.97;4.20;;;5.70;99.90;;;;;;5039621;28;20060;-78
2024/02/24 08:38:59;;;;;;;8.10;4.20;;;5.90;99.90;;;;;;5021615;28;20041;-79
2024/02/24 08:41:26;;;;;;;7.30;4.38;;;5.80;99.90;;;;;;5055983;28;20037;-78
2024/02/24 08:43:52;;;;;;;6.22;4.15;;;5.80;99.90;;;;;;5038183;28;20041;-78
2024/02/24 08:46:19;;;;;;;5.70;3.58;;;6.00;99.90;;;;;;5056992;28;20041;-79
2024/02/24 08:48:45;;;;;;;7.15;4.40;;;6.00;99.90;;;;;;5056109;28;20037;-79
2024/02/24 08:51:11;;;;;;;9.50;4.78;;;6.10;99.90;;;;;;5056374;28;20041;-78
2024/02/24 08:53:36;;;;;;;8.45;4.30;;;6.00;99.90;;;;;;5038637;28;20036;-79
2024/02/24 08:56:02;;;;;;;7.65;4.43;;;6.10;99.90;;;;;;5056592;28;20056;-77
2024/02/24 08:58:28;;;;;;;7.00;4.70;;;6.10;99.90;;;;;;5021037;28;20064;-77
2024/02/24 09:00:56;;;;;;;9.18;4.50;;;6.20;99.90;;;;;;5037939;28;20133;-78
2024/02/24 09:03:22;;;;;;;7.00;4.43;;;6.30;99.90;;;;;;5037436;28;20234;-79
2024/02/24 09:05:48;;;;;;;7.30;5.13;;;6.30;99.90;;;;;;5038213;28;20380;-78
2024/02/24 09:08:13;;;;;;;12.25;5.63;;;6.30;99.90;;;;;;5038110;28;20127;-78
2024/02/24 09:10:39;;;;;;;8.27;5.18;;;6.30;99.90;;;;;;5036853;28;20032;-78
2024/02/24 09:13:05;;;;;;;6.25;4.78;;;6.40;99.90;;;;;;5021224;28;20550;-78
2024/02/24 09:15:31;;;;;;;8.55;5.53;;;6.50;99.90;;;;;;5036892;28;20044;-78
2024/02/24 09:17:56;;;;;;;9.73;4.80;;;6.60;99.90;;;;;;5037444;28;20041;-77
2024/02/24 09:20:22;;;;;;;7.97;5.10;;;6.70;99.90;;;;;;5055127;28;20132;-78
2024/02/24 09:22:49;;;;;;;10.30;5.15;;;6.70;99.90;;;;;;5053484;28;20089;-76
2024/02/24 09:25:15;;;;;;;7.03;4.22;;;6.70;99.90;;;;;;5033230;28;20037;-77
2024/02/24 09:27:44;;;;;;;10.50;6.28;;;6.80;99.90;;;;;;5034361;28;20150;-78
2024/02/24 09:30:10;;;;;;;9.45;5.30;;;6.90;99.90;;;;;;5020720;28;20044;-79
2024/02/24 09:32:37;;;;;;;9.38;5.30;;;6.90;99.90;;;;;;5035407;28;20041;-78
2024/02/24 09:35:03;;;;;;;11.50;6.00;;;6.90;99.90;;;;;;5039954;28;20060;-79
2024/02/24 09:37:29;;;;;;;10.18;5.45;;;6.90;99.90;;;;;;5038763;28;20689;-79
2024/02/24 09:39:55;;;;;;;13.35;5.45;;;7.00;99.90;;;;;;5055641;28;20045;-80
2024/02/24 09:42:27;;;;;;;9.25;5.78;;;7.00;99.90;;;;;;5021365;28;20128;-79
2024/02/24 09:44:59;;;;;;;12.07;6.13;;;6.90;99.90;;;;;;5039397;28;20104;-78
2024/02/24 09:47:26;;;;;;;9.80;6.57;;;7.00;99.90;;;;;;5035202;28;20037;-79
2024/02/24 09:49:52;;;;;;;10.88;5.18;;;7.00;99.90;;;;;;5018053;28;20067;-80
2024/02/24 09:52:18;;;;;;;6.95;5.32;;;7.10;99.90;;;;;;5018733;28;20033;-79
2024/02/24 09:54:44;;;;;;;10.65;6.03;;;7.10;99.90;;;;;;5036947;28;20152;-80
2024/02/24 09:57:15;;;;;;;8.85;6.00;;;7.20;99.90;;;;;;5035380;28;20048;-81
2024/02/24 09:59:43;;;;;;;10.85;6.78;;;7.30;99.90;;;;;;5019977;28;20424;-79
2024/02/24 10:02:09;;;;;;;10.93;6.43;;;7.30;99.90;;;;;;5034808;28;20033;-80
2024/02/24 10:04:35;;;;;;;12.15;6.63;;;7.40;99.90;;;;;;5018406;28;20059;-80
2024/02/24 10:07:00;;;;;;;10.30;6.78;;;7.40;99.90;;;;;;5035218;28;20067;-80
2024/02/24 10:09:26;;;;;;;10.07;7.32;;;7.40;99.90;;;;;;5020280;28;20099;-79
2024/02/24 10:11:52;;;;;;;11.15;7.03;;;7.50;99.90;;;;;;5038735;28;20080;-80
2024/02/24 10:14:17;;;;;;;11.68;7.28;;;7.60;99.90;;;;;;5039347;28;20045;-81
2024/02/24 10:16:46;;;;;;;10.98;7.20;;;7.70;99.90;;;;;;5042828;28;20099;-80
2024/02/24 10:19:12;;;;;;;12.48;7.35;;;7.70;99.90;;;;;;5060232;28;20045;-80
2024/02/24 10:21:38;;;;;;;10.90;7.18;;;7.90;99.90;;;;;;5041690;28;20140;-80
2024/02/24 10:24:04;;;;;;;10.18;7.13;;;8.00;99.90;;;;;;5060054;28;20107;-82
2024/02/24 10:26:30;;;;;;;12.23;8.55;;;8.00;99.90;;;;;;5039597;28;20040;-79
2024/02/24 10:28:55;;;;;;;15.13;8.00;;;8.10;99.90;;;;;;5059108;28;20039;-79
2024/02/24 10:31:23;;;;;;;11.82;7.95;;;8.30;99.90;;;;;;5025263;28;20132;-79
2024/02/24 10:33:49;;;;;;;12.65;8.20;;;8.40;99.90;;;;;;5040525;28;20040;-79
2024/02/24 10:36:16;;;;;;;12.05;8.60;;;8.40;99.90;;;;;;5037596;28;20037;-79
2024/02/24 10:38:44;;;;;;;11.63;8.25;;;8.50;99.90;;;;;;5039950;28;20051;-77
2024/02/24 10:41:11;;;;;;;13.23;7.63;;;8.50;99.90;;;;;;5021546;28;20690;-77
2024/02/24 10:43:38;;;;;;;11.93;7.50;;;8.60;99.90;;;;;;5036124;28;20032;-76
2024/02/24 10:46:04;;;;;;;8.38;6.47;;;8.60;99.90;;;;;;5035769;28;20033;-76
2024/02/24 10:48:30;;;;;;;9.48;6.78;;;8.70;99.90;;;;;;5019552;28;20033;-75
2024/02/24 10:50:55;;;;;;;10.82;6.32;;;8.70;99.90;;;;;;5035865;28;20072;-77
2024/02/24 10:53:27;;;;;;;11.07;6.53;;;8.70;99.90;;;;;;5037148;28;20098;-77
2024/02/24 10:55:56;;;;;;;9.52;6.28;;;8.80;99.90;;;;;;5044983;28;20142;-78
2024/02/24 10:58:22;;;;;;;13.10;5.63;;;8.70;99.90;;;;;;5038382;28;20056;-73
2024/02/24 11:00:50;;;;;;;11.23;5.85;;;8.70;99.90;;;;;;5018818;28;20045;-73
2024/02/24 11:03:19;;;;;;;7.28;5.50;;;8.70;99.90;;;;;;5019328;28;20037;-73
2024/02/24 11:05:51;;;;;;;8.13;5.70;;;8.70;99.90;;;;;;5019116;28;20135;-73
2024/02/24 11:08:45;;;;;;;7.25;5.85;;;8.70;99.90;;;;;;5035431;28;20036;-73
2024/02/24 11:11:14;;;;;;;7.70;5.47;;;8.70;99.90;;;;;;5035491;28;20063;-73
2024/02/24 11:13:45;;;;;;;7.25;6.07;;;8.70;99.90;;;;;;5035670;28;20098;-73
2024/02/24 11:16:11;;;;;;;10.30;5.68;;;8.70;99.90;;;;;;5035792;28;20102;-73
2024/02/24 11:18:49;;;;;;;8.32;4.97;;;8.70;99.90;;;;;;5035584;28;20052;-73
2024/02/24 11:21:16;;;;;;;10.10;5.78;;;8.70;99.90;;;;;;5034940;28;20041;-73
2024/02/24 11:23:44;;;;;;;7.47;5.05;;;8.70;99.90;;;;;;5035418;28;20037;-73
2024/02/24 11:26:16;;;;;;;9.80;5.43;;;8.70;99.90;;;;;;5034843;28;20077;-73
2024/02/24 11:28:46;;;;;;;7.80;5.32;;;8.70;99.90;;;;;;5035476;28;20045;-73
2024/02/24 11:31:34;;;;;;;9.82;5.00;;;8.70;99.90;;;;;;5053085;28;20041;-75
2024/02/24 11:34:05;;;;;;;7.25;5.47;;;8.70;99.90;;;;;;5053451;28;20041;-75
2024/02/24 11:36:33;;;;;;;7.45;5.97;;;8.80;99.90;;;;;;5034844;28;20119;-73
2024/02/24 11:39:00;;;;;;;6.95;4.75;;;8.90;99.90;;;;;;5034918;28;20045;-73
2024/02/24 11:41:28;;;;;;;8.98;5.72;;;9.00;99.90;;;;;;5052551;28;20072;-73
2024/02/24 11:43:54;;;;;;;7.38;5.40;;;9.00;99.90;;;;;;5053065;28;20084;-73
2024/02/24 11:46:19;;;;;;;8.52;5.28;;;9.10;99.90;;;;;;5034952;28;20069;-75
2024/02/24 11:48:45;;;;;;;7.25;4.90;;;9.00;99.90;;;;;;5052697;28;20510;-73
2024/02/24 11:51:11;;;;;;;7.90;5.15;;;9.00;99.90;;;;;;5034480;28;20185;-73
2024/02/24 11:53:36;;;;;;;7.85;4.93;;;9.00;99.90;;;;;;5052765;28;20040;-73
2024/02/24 11:56:02;;;;;;;9.88;4.55;;;9.10;99.90;;;;;;5034726;28;20127;-73
2024/02/24 11:58:28;;;;;;;7.15;4.95;;;9.00;99.90;;;;;;5034618;28;20037;-73
2024/02/24 12:00:55;;;;;;;7.22;4.70;;;9.10;99.90;;;;;;5034294;28;20041;-73
2024/02/24 12:03:21;;;;;;;8.32;4.75;;;9.00;99.90;;;;;;5052540;28;20072;-73
2024/02/24 12:05:47;;;;;;;6.50;4.25;;;9.00;99.90;;;;;;5034451;28;20067;-73
2024/02/24 12:08:21;;;;;;;7.32;4.50;;;9.10;99.90;;;;;;5034225;28;20095;-75
2024/02/24 12:10:47;;;;;;;6.10;4.68;;;9.10;99.90;;;;;;5052149;28;20037;-75
2024/02/24 12:13:13;;;;;;;7.45;4.35;;;9.20;99.90;;;;;;5052668;28;20052;-74
2024/02/24 12:15:40;;;;;;;5.82;4.50;;;9.30;99.90;;;;;;5052279;28;20043;-73
2024/02/24 12:18:10;;;;;;;5.47;4.20;;;9.30;99.90;;;;;;5033962;28;20463;-73
2024/02/24 12:20:48;;;;;;;5.93;4.25;;;9.30;99.90;;;;;;5051503;28;20041;-73
2024/02/24 12:23:17;;;;;;;9.95;5.97;;;9.30;99.90;;;;;;5034217;28;20044;-73
2024/02/24 12:25:45;;;;;;;7.90;4.72;;;9.30;99.90;;;;;;5051970;28;20045;-73
2024/02/24 12:28:11;;;;;;;8.88;4.47;;;9.20;99.90;;;;;;5017379;28;20099;-74
2024/02/24 12:30:39;;;;;;;5.63;4.03;;;9.10;99.90;;;;;;5051538;28;20052;-73
2024/02/24 12:33:06;;;;;;;6.60;4.22;;;9.10;99.90;;;;;;5034166;28;20080;-73
2024/02/24 12:35:32;;;;;;;7.45;4.05;;;9.20;99.90;;;;;;5052012;28;20051;-73
2024/02/24 12:37:58;;;;;;;4.90;3.55;;;9.30;99.90;;;;;;5033699;28;20387;-73
2024/02/24 12:40:31;;;;;;;5.95;4.20;;;9.30;99.90;;;;;;5033308;28;20037;-73
2024/02/24 12:42:58;;;;;;;4.72;3.70;;;9.30;99.90;;;;;;5017600;28;20033;-74
2024/02/24 12:45:24;;;;;;;4.80;3.25;;;9.20;99.90;;;;;;5051567;28;20040;-73
2024/02/24 12:47:50;;;;;;;9.70;3.75;;;9.10;99.90;;;;;;5033678;28;20052;-73
2024/02/24 12:50:19;;;;;;;6.20;3.30;;;9.00;99.90;;;;;;5051051;28;20044;-73